createdAt,value
2022-12-19T00:00:46.377Z,102649.00
2022-12-19T00:03:14.599Z,102656.00
2022-12-19T00:05:42.326Z,102648.06
2022-12-19T00:08:17.911Z,102636.09
2022-12-19T00:10:58.505Z,102646.94
2022-12-19T00:13:27.298Z,102648.34
2022-12-19T00:16:01.551Z,102640.75
2022-12-19T00:18:29.332Z,102650.94
2022-12-19T00:20:59.445Z,102632.22
2022-12-19T00:23:29.749Z,102647.97
2022-12-19T00:26:07.771Z,102637.59
2022-12-19T00:28:35.411Z,102639.38
2022-12-19T00:31:04.843Z,102640.06
2022-12-19T00:33:32.750Z,102647.38
2022-12-19T00:36:05.577Z,102641.50
2022-12-19T00:38:34.183Z,102644.16
2022-12-19T00:41:17.496Z,102654.91
2022-12-19T00:43:45.337Z,102652.50
2022-12-19T00:46:16.077Z,102652.84
2022-12-19T00:48:43.758Z,102664.59
2022-12-19T00:51:14.599Z,102655.41
2022-12-19T00:53:48.349Z,102660.50
2022-12-19T00:56:22.064Z,102652.75
2022-12-19T00:58:49.802Z,102658.81
2022-12-19T01:01:20.557Z,102661.59
2022-12-19T01:04:25.969Z,102652.13
2022-12-19T01:06:36.673Z,102644.66
2022-12-19T01:09:09.180Z,102651.31
2022-12-19T01:11:55.282Z,102646.84
2022-12-19T01:14:23.442Z,102650.03
2022-12-19T01:16:52.094Z,102651.13
2022-12-19T01:19:20.595Z,102651.00
2022-12-19T01:21:48.281Z,102649.00
2022-12-19T01:24:19.125Z,102652.19
2022-12-19T01:26:50.262Z,102645.22
2022-12-19T01:29:17.886Z,102645.25
2022-12-19T01:31:45.579Z,102642.53
2022-12-19T01:34:13.849Z,102660.69
2022-12-19T01:36:41.524Z,102670.66
2022-12-19T01:39:09.235Z,102666.91
2022-12-19T01:41:37.862Z,102651.22
2022-12-19T01:44:07.893Z,102658.81
2022-12-19T01:46:46.077Z,102674.22
2022-12-19T01:49:28.168Z,102671.28
2022-12-19T01:52:00.548Z,102659.06
2022-12-19T01:54:36.236Z,102670.56
2022-12-19T01:57:10.814Z,102676.22
2022-12-19T01:59:44.024Z,102692.47
2022-12-19T02:02:28.365Z,102689.13
2022-12-19T02:04:56.077Z,102687.88
2022-12-19T02:07:26.451Z,102684.13
2022-12-19T02:09:57.728Z,102687.19
2022-12-19T02:12:38.520Z,102684.53
2022-12-19T02:15:09.241Z,102686.41
2022-12-19T02:17:41.303Z,102681.34
2022-12-19T02:20:12.873Z,102677.50
2022-12-19T02:22:56.037Z,102675.06
2022-12-19T02:25:48.270Z,102673.31
2022-12-19T02:28:39.168Z,102665.66
2022-12-19T02:31:31.651Z,102656.28
2022-12-19T02:34:15.180Z,102650.53
2022-12-19T02:36:53.305Z,102650.22
2022-12-19T02:39:34.299Z,102644.22
2022-12-19T02:42:06.723Z,102641.09
2022-12-19T02:44:45.830Z,102627.19
2022-12-19T02:47:14.592Z,102650.25
2022-12-19T02:49:43.655Z,102660.59
2022-12-19T02:52:20.269Z,102664.94
2022-12-19T02:54:53.849Z,102657.34
2022-12-19T02:57:51.859Z,102637.44
2022-12-19T03:00:25.868Z,102644.56
2022-12-19T03:03:11.605Z,102655.00
2022-12-19T03:05:45.198Z,102655.59
2022-12-19T03:08:26.754Z,102652.34
2022-12-19T03:11:10.311Z,102648.59
2022-12-19T03:14:01.000Z,102652.28
2022-12-19T03:16:29.058Z,102654.06
2022-12-19T03:18:58.045Z,102655.94
2022-12-19T03:21:38.872Z,102639.31
2022-12-19T03:24:08.411Z,102648.31
2022-12-19T03:26:48.767Z,102652.38
2022-12-19T03:29:33.016Z,102639.25
2022-12-19T03:32:05.672Z,102638.00
2022-12-19T03:34:40.386Z,102642.38
2022-12-19T03:37:13.503Z,102640.13
2022-12-19T03:39:43.778Z,102628.94
2022-12-19T03:42:33.592Z,102638.69
2022-12-19T03:45:04.974Z,102628.50
2022-12-19T03:47:41.794Z,102627.22
2022-12-19T03:50:10.141Z,102629.22
2022-12-19T03:53:06.876Z,102629.13
2022-12-19T03:55:53.729Z,102640.69
2022-12-19T03:58:34.042Z,102625.63
2022-12-19T04:01:03.820Z,102626.53
2022-12-19T04:03:32.175Z,102622.06
2022-12-19T04:06:02.355Z,102625.00
2022-12-19T04:08:31.867Z,102628.13
2022-12-19T04:11:07.217Z,102623.81
2022-12-19T04:13:48.040Z,102625.78
2022-12-19T04:16:24.519Z,102624.72
2022-12-19T04:19:01.318Z,102634.41
2022-12-19T04:21:35.844Z,102637.88
2022-12-19T04:24:09.986Z,102623.47
2022-12-19T04:26:44.160Z,102632.69
2022-12-19T04:29:13.502Z,102643.41
2022-12-19T04:31:41.821Z,102642.72
2022-12-19T04:34:09.546Z,102643.13
2022-12-19T04:36:37.265Z,102641.97
2022-12-19T04:39:05.135Z,102628.09
2022-12-19T04:41:32.734Z,102629.03
2022-12-19T04:44:00.327Z,102637.72
2022-12-19T04:46:28.167Z,102623.91
2022-12-19T04:48:55.798Z,102627.88
2022-12-19T04:51:23.512Z,102629.94
2022-12-19T04:53:51.151Z,102623.81
2022-12-19T04:56:18.908Z,102632.94
2022-12-19T04:58:47.304Z,102622.69
2022-12-19T05:01:14.965Z,102630.06
2022-12-19T05:03:42.688Z,102615.91
2022-12-19T05:06:13.651Z,102625.69
2022-12-19T05:08:42.900Z,102635.25
2022-12-19T05:11:19.015Z,102645.84
2022-12-19T05:13:48.170Z,102637.13
2022-12-19T05:16:17.773Z,102642.41
2022-12-19T05:18:45.495Z,102651.31
2022-12-19T05:21:13.418Z,102647.09
2022-12-19T05:23:41.188Z,102646.88
2022-12-19T05:26:09.049Z,102653.22
2022-12-19T05:28:37.172Z,102634.13
2022-12-19T05:31:07.705Z,102619.34
2022-12-19T05:33:36.203Z,102618.94
2022-12-19T05:36:05.009Z,102604.84
2022-12-19T05:38:32.920Z,102592.66
2022-12-19T05:41:00.768Z,102609.84
2022-12-19T05:43:28.379Z,102608.88
2022-12-19T05:45:56.114Z,102615.50
2022-12-19T05:48:23.770Z,102635.47
2022-12-19T05:50:51.478Z,102633.59
2022-12-19T05:53:25.876Z,102638.50
2022-12-19T05:56:09.098Z,102638.88
2022-12-19T05:58:38.407Z,102641.38
2022-12-19T06:01:17.541Z,102652.00
2022-12-19T06:03:46.334Z,102649.44
2022-12-19T06:06:19.513Z,102656.91
2022-12-19T06:08:47.777Z,102641.28
2022-12-19T06:11:16.780Z,102649.00
2022-12-19T06:13:44.339Z,102658.94
2022-12-19T06:16:14.550Z,102645.31
2022-12-19T06:18:45.023Z,102650.88
2022-12-19T06:21:18.355Z,102657.00
2022-12-19T06:23:46.311Z,102654.22
2022-12-19T06:26:19.592Z,102661.94
2022-12-19T06:28:49.365Z,102670.56
2022-12-19T06:31:18.091Z,102661.28
2022-12-19T06:33:50.585Z,102659.25
2022-12-19T06:36:26.259Z,102648.53
2022-12-19T06:38:55.804Z,102650.31
2022-12-19T06:41:43.564Z,102663.06
2022-12-19T06:44:12.990Z,102658.41
2022-12-19T06:46:41.390Z,102654.22
2022-12-19T06:49:10.125Z,102659.47
2022-12-19T06:51:42.120Z,102649.22
2022-12-19T06:54:16.053Z,102645.28
2022-12-19T06:56:45.115Z,102645.88
2022-12-19T06:59:14.931Z,102643.81
2022-12-19T07:02:00.927Z,102650.94
2022-12-19T07:04:37.451Z,102659.47
2022-12-19T07:07:05.444Z,102674.22
2022-12-19T07:09:35.736Z,102672.31
2022-12-19T07:12:19.792Z,102676.34
2022-12-19T07:15:13.139Z,102679.06
2022-12-19T07:17:50.692Z,102679.66
2022-12-19T07:20:24.835Z,102677.22
2022-12-19T07:23:29.473Z,102666.44
2022-12-19T07:29:23.944Z,102660.78
2022-12-19T07:31:56.203Z,102666.50
2022-12-19T07:34:37.444Z,102670.03
2022-12-19T07:37:08.453Z,102673.78
2022-12-19T07:39:36.780Z,102669.06
2022-12-19T07:42:13.672Z,102667.78
2022-12-19T07:44:42.506Z,102676.00
2022-12-19T07:47:11.319Z,102666.75
2022-12-19T07:49:39.930Z,102656.50
2022-12-19T07:52:08.967Z,102661.72
2022-12-19T07:54:37.877Z,102673.84
2022-12-19T07:57:05.820Z,102670.38
2022-12-19T08:05:35.288Z,102673.28
2022-12-19T08:08:02.677Z,102678.31
2022-12-19T08:10:31.162Z,102676.00
2022-12-19T08:12:59.773Z,102681.69
2022-12-19T08:15:27.416Z,102684.19
2022-12-19T08:17:55.022Z,102687.13
2022-12-19T08:20:22.411Z,102682.19
2022-12-19T08:22:49.896Z,102692.91
2022-12-19T08:25:17.589Z,102693.19
2022-12-19T08:27:45.100Z,102686.13
2022-12-19T08:30:14.151Z,102684.56
2022-12-19T08:32:41.721Z,102687.56
2022-12-19T08:35:10.259Z,102684.03
2022-12-19T08:37:39.578Z,102686.06
2022-12-19T08:40:08.768Z,102685.50
2022-12-19T08:42:37.238Z,102691.59
2022-12-19T08:49:38.696Z,102678.47
2022-12-19T08:52:06.221Z,102684.53
2022-12-19T08:54:33.993Z,102675.41
2022-12-19T09:06:18.716Z,102670.34
2022-12-19T09:08:47.002Z,102688.28
2022-12-19T09:11:16.924Z,102690.28
2022-12-19T09:13:45.034Z,102686.13
2022-12-19T09:16:13.787Z,102683.25
2022-12-19T09:28:26.419Z,102690.25
2022-12-19T09:30:40.046Z,102690.38
2022-12-19T09:33:07.512Z,102697.00
2022-12-19T09:35:36.857Z,102694.72
2022-12-19T09:38:04.773Z,102695.50
2022-12-19T09:49:46.928Z,102689.44
2022-12-19T09:52:19.460Z,102690.88
2022-12-19T09:55:17.178Z,102692.34
2022-12-19T09:57:50.701Z,102677.75
2022-12-19T10:00:21.306Z,102683.88
2022-12-19T10:17:22.988Z,102680.66
2022-12-19T10:19:58.968Z,102682.50
2022-12-19T10:23:00.095Z,102686.84
2022-12-19T10:25:47.602Z,102686.47
2022-12-19T10:32:54.347Z,102671.44
2022-12-19T10:35:23.769Z,102665.22
2022-12-19T10:38:00.044Z,102670.69
2022-12-19T10:49:31.218Z,102648.50
2022-12-19T10:52:08.100Z,102653.69
2022-12-19T10:54:38.601Z,102642.28
2022-12-19T10:57:25.536Z,102643.19
2022-12-19T10:59:59.904Z,102646.59
2022-12-19T11:15:30.854Z,102638.72
2022-12-19T11:17:55.010Z,102640.13
2022-12-19T11:29:39.899Z,102618.50
2022-12-19T11:30:58.917Z,102617.81
2022-12-19T11:32:40.675Z,102609.31
2022-12-19T11:49:02.131Z,102581.50
2022-12-19T12:01:05.779Z,102572.78
2022-12-19T12:04:10.646Z,102572.47
2022-12-19T12:19:21.847Z,102569.75
2022-12-19T12:25:06.097Z,102565.41
2022-12-19T12:31:45.125Z,102552.81
2022-12-19T12:31:50.994Z,102561.88
2022-12-19T12:35:50.039Z,102551.84
2022-12-19T12:44:11.043Z,102539.84
2022-12-19T12:46:43.995Z,102543.44
2022-12-19T12:49:48.541Z,102530.78
2022-12-19T12:52:22.099Z,102532.50
2022-12-19T12:54:51.154Z,102535.22
2022-12-19T12:57:33.871Z,102526.00
2022-12-19T13:00:32.926Z,102527.53
2022-12-19T13:03:03.971Z,102523.75
2022-12-19T13:05:46.485Z,102529.56
2022-12-19T13:08:34.457Z,102527.59
2022-12-19T13:11:33.875Z,102526.13
2022-12-19T13:14:01.415Z,102531.94
2022-12-19T13:16:44.190Z,102519.38
2022-12-19T13:19:25.778Z,102529.59
2022-12-19T13:22:05.013Z,102528.41
2022-12-19T13:24:56.092Z,102519.22
2022-12-19T13:27:23.935Z,102518.81
2022-12-19T13:30:00.296Z,102510.97
2022-12-19T13:32:39.079Z,102519.44
2022-12-19T13:36:37.319Z,102519.19
2022-12-19T13:39:55.430Z,102513.75
2022-12-19T13:43:13.582Z,102509.72
2022-12-19T13:54:59.542Z,102525.88
2022-12-19T13:57:30.291Z,102521.34
2022-12-19T14:00:03.542Z,102525.94
2022-12-19T14:06:16.636Z,102518.59
2022-12-19T14:08:28.975Z,102514.06
2022-12-19T14:14:39.938Z,102511.38
2022-12-19T14:17:22.383Z,102521.16
2022-12-19T14:22:02.784Z,102520.19
2022-12-19T14:23:42.859Z,102508.75
2022-12-19T14:28:19.052Z,102508.91
2022-12-19T14:33:46.230Z,102504.59
2022-12-19T14:36:43.500Z,102515.31
2022-12-19T14:44:00.434Z,102521.25
2022-12-19T15:07:06.767Z,102519.72
2022-12-19T15:14:56.112Z,102508.38
2022-12-19T15:20:27.293Z,102507.91
2022-12-19T15:24:12.403Z,102515.72
2022-12-19T15:27:45.816Z,102513.81
2022-12-19T15:30:51.992Z,102516.47
2022-12-19T15:41:16.742Z,102517.94
2022-12-19T15:44:04.047Z,102508.47
2022-12-19T15:47:01.222Z,102510.19
2022-12-19T15:50:42.754Z,102501.25
2022-12-19T15:53:49.271Z,102498.97
2022-12-19T15:56:28.053Z,102497.06
2022-12-19T15:58:58.817Z,102491.78
2022-12-19T16:01:26.830Z,102497.63
2022-12-19T16:03:56.926Z,102494.75
2022-12-19T16:06:24.623Z,102498.81
2022-12-19T16:08:52.248Z,102499.72
2022-12-19T16:11:24.561Z,102498.78
2022-12-19T16:13:55.726Z,102506.81
2022-12-19T16:16:23.405Z,102510.31
2022-12-19T16:18:51.056Z,102515.28
2022-12-19T16:21:31.594Z,102511.19
2022-12-19T16:24:01.657Z,102512.16
2022-12-19T16:26:34.688Z,102510.28
2022-12-19T16:29:02.919Z,102508.06
2022-12-19T16:31:30.873Z,102503.91
2022-12-19T16:33:58.451Z,102502.44
2022-12-19T16:36:25.911Z,102514.59
2022-12-19T16:38:53.493Z,102506.50
2022-12-19T16:41:25.252Z,102507.59
2022-12-19T16:43:52.904Z,102504.28
2022-12-19T16:46:23.579Z,102499.44
2022-12-19T16:48:51.141Z,102499.47
2022-12-19T16:51:27.634Z,102496.09
2022-12-19T16:53:58.940Z,102505.78
2022-12-19T16:56:40.726Z,102508.34
2022-12-19T16:59:38.242Z,102504.91
2022-12-19T17:02:38.218Z,102506.69
2022-12-19T17:05:07.918Z,102499.34
2022-12-19T17:07:35.594Z,102501.50
2022-12-19T17:10:03.185Z,102498.97
2022-12-19T17:12:30.750Z,102497.53
2022-12-19T17:15:01.681Z,102496.34
2022-12-19T17:17:29.147Z,102501.34
2022-12-19T17:19:56.585Z,102502.47
2022-12-19T17:22:24.043Z,102502.03
2022-12-19T17:24:51.657Z,102499.97
2022-12-19T17:27:21.053Z,102508.16
2022-12-19T17:29:48.527Z,102511.69
2022-12-19T17:32:23.601Z,102515.25
2022-12-19T17:34:52.799Z,102516.97
2022-12-19T17:37:20.516Z,102519.09
2022-12-19T17:39:48.656Z,102514.78
2022-12-19T17:42:24.117Z,102516.34
2022-12-19T17:44:52.049Z,102522.22
2022-12-19T17:47:21.187Z,102517.91
2022-12-19T17:49:49.380Z,102533.47
2022-12-19T17:52:19.755Z,102531.97
2022-12-19T17:54:47.547Z,102520.38
2022-12-19T17:57:16.253Z,102521.34
2022-12-19T17:59:46.339Z,102518.41
2022-12-19T18:02:24.787Z,102508.75
2022-12-19T18:04:52.804Z,102509.69
2022-12-19T18:07:20.287Z,102511.53
2022-12-19T18:09:47.746Z,102515.41
2022-12-19T18:12:15.379Z,102518.50
2022-12-19T18:14:42.846Z,102504.72
2022-12-19T18:17:12.950Z,102507.81
2022-12-19T18:19:40.545Z,102509.53
2022-12-19T18:22:14.577Z,102512.44
2022-12-19T18:24:42.408Z,102511.59
2022-12-19T18:27:10.359Z,102511.41
2022-12-19T18:29:37.867Z,102506.97
2022-12-19T18:32:05.411Z,102509.78
2022-12-19T18:34:34.448Z,102514.19
2022-12-19T18:37:02.855Z,102518.63
2022-12-19T18:39:32.072Z,102517.56
2022-12-19T18:41:59.659Z,102511.97
2022-12-19T18:44:27.097Z,102511.69
2022-12-19T18:46:54.602Z,102515.16
2022-12-19T18:49:23.053Z,102510.06
2022-12-19T18:51:50.552Z,102503.50
2022-12-19T18:54:21.845Z,102503.91
2022-12-19T18:56:49.390Z,102506.34
2022-12-19T18:59:16.965Z,102503.97
2022-12-19T19:01:46.958Z,102502.94
2022-12-19T19:04:18.371Z,102494.56
2022-12-19T19:06:51.785Z,102494.81
2022-12-19T19:09:21.008Z,102502.34
2022-12-19T19:12:27.105Z,102507.00
2022-12-19T19:14:54.461Z,102495.44
2022-12-19T19:17:28.235Z,102497.53
2022-12-19T19:19:55.848Z,102492.09
2022-12-19T19:22:24.820Z,102501.47
2022-12-19T19:24:52.347Z,102501.69
2022-12-19T19:27:19.842Z,102492.47
2022-12-19T19:29:47.263Z,102495.78
2022-12-19T19:32:14.745Z,102498.34
2022-12-19T19:34:42.987Z,102490.53
2022-12-19T19:37:13.736Z,102489.63
2022-12-19T19:39:41.967Z,102481.38
2022-12-19T19:42:09.689Z,102487.25
2022-12-19T19:44:37.182Z,102476.03
2022-12-19T19:47:04.751Z,102476.03
2022-12-19T19:49:50.457Z,102481.53
2022-12-19T19:52:17.928Z,102483.38
2022-12-19T19:54:45.752Z,102485.53
2022-12-19T19:57:13.334Z,102483.78
2022-12-19T19:59:40.807Z,102477.66
2022-12-19T20:02:11.479Z,102481.28
2022-12-19T20:04:39.560Z,102466.00
2022-12-19T20:07:07.977Z,102471.50
2022-12-19T20:09:35.437Z,102477.25
2022-12-19T20:12:03.095Z,102472.28
2022-12-19T20:14:30.643Z,102477.09
2022-12-19T20:16:59.386Z,102475.28
2022-12-19T20:19:28.002Z,102469.03
2022-12-19T20:21:56.892Z,102461.47
2022-12-19T20:24:25.003Z,102464.63
2022-12-19T20:26:52.941Z,102456.13
2022-12-19T20:29:20.965Z,102464.22
2022-12-19T20:31:50.264Z,102460.91
2022-12-19T20:34:20.243Z,102457.50
2022-12-19T20:36:49.628Z,102461.00
2022-12-19T20:39:22.160Z,102454.06
2022-12-19T20:41:52.840Z,102458.22
2022-12-19T20:44:24.473Z,102454.13
2022-12-19T20:46:54.075Z,102459.00
2022-12-19T20:49:23.561Z,102458.84
2022-12-19T20:51:51.189Z,102458.00
2022-12-19T20:54:21.707Z,102444.97
2022-12-19T20:56:49.372Z,102454.94
2022-12-19T20:59:17.198Z,102452.59
2022-12-19T21:01:46.587Z,102447.72
2022-12-19T21:04:15.707Z,102447.38
2022-12-19T21:06:43.824Z,102444.94
2022-12-19T21:09:12.529Z,102451.53
2022-12-19T21:11:43.519Z,102442.38
2022-12-19T21:14:12.757Z,102440.50
2022-12-19T21:16:41.044Z,102443.56
2022-12-19T21:19:10.293Z,102432.47
2022-12-19T21:22:06.543Z,102444.69
2022-12-19T21:24:35.354Z,102431.81
2022-12-19T21:27:03.221Z,102438.75
2022-12-19T21:29:31.123Z,102437.78
2022-12-19T21:31:58.786Z,102432.22
2022-12-19T21:34:26.594Z,102439.78
2022-12-19T21:36:54.296Z,102442.38
2022-12-19T21:39:25.514Z,102443.84
2022-12-19T21:41:53.004Z,102442.88
2022-12-19T21:44:20.745Z,102438.75
2022-12-19T21:46:48.394Z,102437.03
2022-12-19T21:49:16.120Z,102440.53
2022-12-19T21:51:43.796Z,102443.88
2022-12-19T21:54:11.654Z,102443.13
2022-12-19T21:56:40.822Z,102436.28
2022-12-19T21:59:16.625Z,102436.34
2022-12-19T22:01:45.347Z,102430.84
2022-12-19T22:04:22.943Z,102432.53
2022-12-19T22:06:51.938Z,102434.66
2022-12-19T22:09:22.738Z,102436.34
2022-12-19T22:11:53.549Z,102425.16
2022-12-19T22:14:29.116Z,102430.81
2022-12-19T22:16:59.834Z,102438.63
2022-12-19T22:19:27.699Z,102431.69
2022-12-19T22:21:56.361Z,102439.72
2022-12-19T22:24:24.981Z,102437.78
2022-12-19T22:26:53.061Z,102423.59
2022-12-19T22:29:31.896Z,102428.25
2022-12-19T22:36:04.783Z,102419.41
2022-12-19T22:38:49.353Z,102420.84
2022-12-19T22:41:19.477Z,102409.97
2022-12-19T22:44:17.089Z,102409.31
2022-12-19T22:46:54.162Z,102422.91
2022-12-19T22:49:33.203Z,102414.41
2022-12-19T22:52:01.126Z,102412.59
2022-12-19T22:54:29.951Z,102409.59
2022-12-19T22:57:02.733Z,102409.09
2022-12-19T22:59:30.575Z,102414.53
2022-12-19T23:02:01.484Z,102404.84
2022-12-19T23:04:29.331Z,102409.63
2022-12-19T23:06:57.010Z,102400.59
2022-12-19T23:09:38.083Z,102404.25
2022-12-19T23:12:07.294Z,102402.59
2022-12-19T23:14:40.422Z,102409.63
2022-12-19T23:17:08.176Z,102399.50
2022-12-19T23:19:35.865Z,102405.09
2022-12-19T23:23:09.227Z,102404.59
2022-12-19T23:27:10.238Z,102402.13
2022-12-19T23:30:14.964Z,102404.09
2022-12-19T23:37:20.227Z,102395.03
2022-12-19T23:41:15.322Z,102395.69
2022-12-19T23:44:40.411Z,102388.03
2022-12-19T23:47:11.049Z,102393.66
2022-12-19T23:49:38.796Z,102387.22
2022-12-19T23:58:00.999Z,102378.69
